createdAt,value
2023-05-14T00:02:13.242Z,92.95
2023-05-14T00:04:43.081Z,93.19
2023-05-14T00:07:11.795Z,93.26
2023-05-14T00:09:39.609Z,92.96
2023-05-14T00:12:08.102Z,92.83
2023-05-14T00:14:35.967Z,92.58
2023-05-14T00:17:06.958Z,93.01
2023-05-14T00:19:34.903Z,93.01
2023-05-14T00:22:04.233Z,93.21
2023-05-14T00:24:32.232Z,93.23
2023-05-14T00:27:00.036Z,92.92
2023-05-14T00:29:28.053Z,93.02
2023-05-14T00:31:55.977Z,92.17
2023-05-14T00:34:23.912Z,92.48
2023-05-14T00:36:52.195Z,92.87
2023-05-14T00:39:21.473Z,93.27
2023-05-14T00:41:49.647Z,93.03
2023-05-14T00:44:17.457Z,93.45
2023-05-14T00:46:45.452Z,93.10
2023-05-14T00:49:13.442Z,92.99
2023-05-14T00:51:42.484Z,92.98
2023-05-14T00:54:10.599Z,93.40
2023-05-14T00:56:40.042Z,94.00
2023-05-14T00:59:08.052Z,94.28
2023-05-14T01:01:37.046Z,94.55
2023-05-14T01:04:06.048Z,94.51
2023-05-14T01:06:43.500Z,94.66
2023-05-14T01:09:19.040Z,95.00
2023-05-14T01:11:56.847Z,94.87
2023-05-14T01:14:34.249Z,95.07
2023-05-14T01:17:06.227Z,95.28
2023-05-14T01:19:38.535Z,95.57
2023-05-14T01:22:08.204Z,95.68
2023-05-14T01:24:36.205Z,96.98
2023-05-14T01:27:11.550Z,96.80
2023-05-14T01:29:44.318Z,97.53
2023-05-14T01:32:13.546Z,96.99
2023-05-14T01:34:42.207Z,96.87
2023-05-14T01:37:13.993Z,97.43
2023-05-14T01:39:43.261Z,97.14
2023-05-14T01:42:12.095Z,98.03
2023-05-14T01:44:40.200Z,98.25
2023-05-14T01:47:08.116Z,98.76
2023-05-14T01:49:37.150Z,98.32
2023-05-14T01:52:05.343Z,98.38
2023-05-14T01:54:34.742Z,99.11
2023-05-14T01:57:02.540Z,99.01
2023-05-14T01:59:30.572Z,98.67
2023-05-14T02:02:01.972Z,98.05
2023-05-14T02:04:29.866Z,97.99
2023-05-14T02:06:57.593Z,97.50
2023-05-14T02:09:25.692Z,98.18
2023-05-14T02:11:55.114Z,98.51
2023-05-14T02:14:22.896Z,98.53
2023-05-14T02:16:51.433Z,99.47
2023-05-14T02:19:19.249Z,98.77
2023-05-14T02:21:47.154Z,99.76
2023-05-14T02:24:15.111Z,100.00
2023-05-14T02:26:43.156Z,99.48
2023-05-14T02:29:12.361Z,99.82
2023-05-14T02:31:40.286Z,99.60
2023-05-14T02:34:08.112Z,100.00
2023-05-14T02:36:36.036Z,99.90
2023-05-14T02:39:04.625Z,100.00
2023-05-14T02:41:32.403Z,100.00
2023-05-14T02:44:00.217Z,100.00
2023-05-14T02:46:29.616Z,100.00
2023-05-14T02:48:57.684Z,100.00
2023-05-14T02:51:26.500Z,100.00
2023-05-14T02:53:54.325Z,99.97
2023-05-14T02:56:22.318Z,100.00
2023-05-14T02:58:50.097Z,99.50
2023-05-14T03:01:18.803Z,99.67
2023-05-14T03:03:49.870Z,98.80
2023-05-14T03:06:18.186Z,98.24
2023-05-14T03:08:46.181Z,98.05
2023-05-14T03:11:14.047Z,96.70
2023-05-14T03:13:41.836Z,95.88
2023-05-14T03:16:09.655Z,94.88
2023-05-14T03:18:37.519Z,94.03
2023-05-14T03:21:06.708Z,93.18
2023-05-14T03:23:35.166Z,92.28
2023-05-14T03:26:03.858Z,91.35
2023-05-14T03:28:31.961Z,91.22
2023-05-14T03:30:59.929Z,91.85
2023-05-14T03:33:27.751Z,92.92
2023-05-14T03:35:55.537Z,92.68
2023-05-14T03:38:24.650Z,92.73
2023-05-14T03:40:52.660Z,92.82
2023-05-14T03:43:20.468Z,94.06
2023-05-14T03:45:52.222Z,94.47
2023-05-14T03:48:20.586Z,94.28
2023-05-14T03:50:48.482Z,94.70
2023-05-14T03:53:16.783Z,94.72
2023-05-14T03:55:46.177Z,94.76
2023-05-14T03:58:14.722Z,95.23
2023-05-14T04:00:42.730Z,95.63
2023-05-14T04:03:11.265Z,95.22
2023-05-14T04:05:43.104Z,94.75
2023-05-14T04:08:10.822Z,95.07
2023-05-14T04:10:38.580Z,94.53
2023-05-14T04:13:08.203Z,94.05
2023-05-14T04:15:39.244Z,94.14
2023-05-14T04:18:07.426Z,93.00
2023-05-14T04:20:35.382Z,92.87
2023-05-14T04:23:03.125Z,93.18
2023-05-14T04:25:31.004Z,91.70
2023-05-14T04:27:59.060Z,92.11
2023-05-14T04:30:28.442Z,92.09
2023-05-14T04:32:56.404Z,91.67
2023-05-14T04:35:25.202Z,92.36
2023-05-14T04:37:53.277Z,92.58
2023-05-14T04:40:22.977Z,92.92
2023-05-14T04:42:51.121Z,92.45
2023-05-14T04:45:19.210Z,92.32
2023-05-14T04:47:48.552Z,91.98
2023-05-14T04:50:16.767Z,90.94
2023-05-14T04:52:44.564Z,91.63
2023-05-14T04:55:12.299Z,90.10
2023-05-14T04:57:40.081Z,90.06
2023-05-14T05:00:10.178Z,89.74
2023-05-14T05:02:38.093Z,89.08
2023-05-14T05:05:07.768Z,87.98
2023-05-14T05:07:36.942Z,87.73
2023-05-14T05:10:04.879Z,86.45
2023-05-14T05:12:32.706Z,83.66
2023-05-14T05:15:00.581Z,82.08
2023-05-14T05:17:28.489Z,80.14
2023-05-14T05:19:56.320Z,78.31
2023-05-14T05:22:25.783Z,77.22
2023-05-14T05:24:53.563Z,76.12
2023-05-14T05:27:22.090Z,77.27
2023-05-14T05:29:49.780Z,78.38
2023-05-14T05:32:17.646Z,80.73
2023-05-14T05:34:45.478Z,81.17
2023-05-14T05:37:14.883Z,82.55
2023-05-14T05:39:44.263Z,82.45
2023-05-14T05:42:11.925Z,80.76
2023-05-14T05:44:39.691Z,80.95
2023-05-14T05:47:07.622Z,76.49
2023-05-14T05:49:36.846Z,71.85
2023-05-14T05:52:05.097Z,67.32
2023-05-14T05:54:33.303Z,65.82
2023-05-14T05:57:02.503Z,63.51
2023-05-14T05:59:30.224Z,60.71
2023-05-14T06:01:58.009Z,59.82
2023-05-14T06:04:25.947Z,57.46
2023-05-14T06:06:54.252Z,58.26
2023-05-14T06:09:22.140Z,56.42
2023-05-14T06:11:49.946Z,54.79
2023-05-14T06:14:19.271Z,53.08
2023-05-14T06:16:47.138Z,53.82
2023-05-14T06:19:15.256Z,54.79
2023-05-14T06:21:43.070Z,55.98
2023-05-14T06:24:11.389Z,56.46
2023-05-14T06:26:39.064Z,57.15
2023-05-14T06:29:06.889Z,58.58
2023-05-14T06:31:36.078Z,59.09
2023-05-14T06:34:03.995Z,58.96
2023-05-14T06:36:31.712Z,58.44
2023-05-14T06:38:59.421Z,59.83
2023-05-14T06:41:27.179Z,59.18
2023-05-14T06:43:55.247Z,60.02
2023-05-14T06:46:23.059Z,60.47
2023-05-14T06:48:52.378Z,58.81
2023-05-14T06:51:20.183Z,57.14
2023-05-14T06:53:48.804Z,57.39
2023-05-14T06:56:16.595Z,56.58
2023-05-14T06:58:44.313Z,58.14
2023-05-14T07:01:12.180Z,58.13
2023-05-14T07:03:40.170Z,57.63
2023-05-14T07:06:10.357Z,58.46
2023-05-14T07:08:40.216Z,58.93
2023-05-14T07:11:08.188Z,59.78
2023-05-14T07:13:36.291Z,60.22
2023-05-14T07:16:03.981Z,60.36
2023-05-14T07:18:31.763Z,60.67
2023-05-14T07:20:59.491Z,61.24
2023-05-14T07:23:28.786Z,61.08
2023-05-14T07:25:56.550Z,61.85
2023-05-14T07:28:24.233Z,61.11
2023-05-14T07:30:52.016Z,60.88
2023-05-14T07:33:19.782Z,60.59
2023-05-14T07:35:47.610Z,61.39
2023-05-14T07:38:15.827Z,61.01
2023-05-14T07:40:44.992Z,61.66
2023-05-14T07:43:12.850Z,61.67
2023-05-14T07:45:40.838Z,60.47
2023-05-14T07:48:09.010Z,59.46
2023-05-14T07:50:37.994Z,60.12
2023-05-14T07:53:05.717Z,59.39
2023-05-14T07:55:33.412Z,60.54
2023-05-14T07:58:02.668Z,60.44
2023-05-14T08:00:30.724Z,61.28
2023-05-14T08:02:58.720Z,60.28
2023-05-14T08:05:26.682Z,60.75
2023-05-14T08:07:54.631Z,59.10
2023-05-14T08:10:22.516Z,60.22
2023-05-14T08:12:51.605Z,60.79
2023-05-14T08:15:21.042Z,59.98
2023-05-14T08:17:48.816Z,59.19
2023-05-14T08:20:16.578Z,59.03
2023-05-14T08:22:44.387Z,58.04
2023-05-14T08:25:12.566Z,58.89
2023-05-14T08:27:41.203Z,58.14
2023-05-14T08:30:09.755Z,58.24
2023-05-14T08:32:39.411Z,58.31
2023-05-14T08:35:08.288Z,57.92
2023-05-14T08:37:36.045Z,57.84
2023-05-14T08:40:04.066Z,57.72
2023-05-14T08:42:32.664Z,59.02
2023-05-14T08:45:03.140Z,58.41
2023-05-14T08:47:32.015Z,57.98
2023-05-14T08:50:04.436Z,58.90
2023-05-14T08:52:32.482Z,56.79
2023-05-14T08:55:01.412Z,57.47
2023-05-14T08:57:31.187Z,56.22
2023-05-14T09:00:01.297Z,57.35
2023-05-14T09:02:30.283Z,57.02
2023-05-14T09:05:01.948Z,56.78
2023-05-14T09:07:30.108Z,56.85
2023-05-14T09:09:58.057Z,55.66
2023-05-14T09:12:26.231Z,55.75
2023-05-14T09:14:54.163Z,55.14
2023-05-14T09:17:22.211Z,54.92
2023-05-14T09:19:53.161Z,54.63
2023-05-14T09:22:23.065Z,55.57
2023-05-14T09:25:05.066Z,56.41
2023-05-14T09:27:34.218Z,53.02
2023-05-14T09:30:10.817Z,52.23
2023-05-14T09:32:46.211Z,51.88
2023-05-14T09:35:17.650Z,54.09
2023-05-14T09:37:48.639Z,52.51
2023-05-14T09:40:17.642Z,51.47
2023-05-14T09:42:45.626Z,51.81
2023-05-14T09:45:13.774Z,51.05
2023-05-14T09:47:41.730Z,51.37
2023-05-14T09:50:10.050Z,52.33
2023-05-14T09:52:38.431Z,50.44
2023-05-14T09:55:09.024Z,50.41
2023-05-14T09:57:37.177Z,50.30
2023-05-14T10:00:05.851Z,50.70
2023-05-14T10:02:38.819Z,51.00
2023-05-14T10:05:07.981Z,48.54
2023-05-14T10:07:41.479Z,50.92
2023-05-14T10:10:16.424Z,49.38
2023-05-14T10:12:48.537Z,48.65
2023-05-14T10:15:22.654Z,49.44
2023-05-14T10:17:55.752Z,48.58
2023-05-14T10:20:24.682Z,48.25
2023-05-14T10:22:52.976Z,49.55
2023-05-14T10:25:23.202Z,48.42
2023-05-14T10:28:02.050Z,48.76
2023-05-14T10:30:37.141Z,48.20
2023-05-14T10:33:09.641Z,48.20
2023-05-14T10:36:00.043Z,48.40
2023-05-14T10:38:29.233Z,47.31
2023-05-14T10:41:06.257Z,49.46
2023-05-14T10:43:39.971Z,50.17
2023-05-14T10:46:09.633Z,50.13
2023-05-14T10:48:38.737Z,50.00
2023-05-14T10:51:09.248Z,50.01
2023-05-14T10:53:39.237Z,51.02
2023-05-14T10:56:10.696Z,50.50
2023-05-14T10:58:41.630Z,50.20
2023-05-14T11:01:11.216Z,51.88
2023-05-14T11:03:44.887Z,52.30
2023-05-14T11:06:14.933Z,51.82
2023-05-14T11:08:43.786Z,52.22
2023-05-14T11:11:13.045Z,52.34
2023-05-14T11:13:42.252Z,50.49
2023-05-14T11:16:22.950Z,50.03
2023-05-14T11:18:55.279Z,50.49
2023-05-14T11:21:23.333Z,50.06
2023-05-14T11:23:51.596Z,49.52
2023-05-14T11:26:21.829Z,48.51
2023-05-14T11:28:49.987Z,49.35
2023-05-14T11:31:18.001Z,48.67
2023-05-14T11:33:45.886Z,48.71
2023-05-14T11:36:13.995Z,48.29
2023-05-14T11:38:48.741Z,47.36
2023-05-14T11:41:16.519Z,48.10
2023-05-14T11:43:45.765Z,49.46
2023-05-14T11:46:18.068Z,49.33
2023-05-14T11:48:46.003Z,49.31
2023-05-14T11:51:14.022Z,50.30
2023-05-14T11:53:42.101Z,48.58
2023-05-14T11:56:10.164Z,48.85
2023-05-14T11:58:38.089Z,48.64
2023-05-14T12:01:07.426Z,49.51
2023-05-14T12:03:36.313Z,50.25
2023-05-14T12:06:08.208Z,49.08
2023-05-14T12:08:36.278Z,49.30
2023-05-14T12:11:04.553Z,48.37
2023-05-14T12:13:35.432Z,48.96
2023-05-14T12:16:03.894Z,49.00
2023-05-14T12:18:34.229Z,48.30
2023-05-14T12:21:04.449Z,48.83
2023-05-14T12:23:33.053Z,48.43
2023-05-14T12:26:02.910Z,48.31
2023-05-14T12:28:31.028Z,48.49
2023-05-14T12:30:59.647Z,49.44
2023-05-14T12:33:28.501Z,49.58
2023-05-14T12:36:07.414Z,48.32
2023-05-14T12:38:47.981Z,48.01
2023-05-14T12:41:15.801Z,48.07
2023-05-14T12:43:44.635Z,49.08
2023-05-14T12:46:12.651Z,48.73
2023-05-14T12:48:40.536Z,48.67
2023-05-14T12:51:09.742Z,49.63
2023-05-14T12:53:37.596Z,50.75
2023-05-14T12:56:06.107Z,49.69
2023-05-14T12:58:33.891Z,50.28
2023-05-14T13:01:01.911Z,51.22
2023-05-14T13:03:29.750Z,50.52
2023-05-14T13:05:57.589Z,50.98
2023-05-14T13:08:27.351Z,51.71
2023-05-14T13:10:56.480Z,51.92
2023-05-14T13:13:24.886Z,52.19
2023-05-14T13:15:53.941Z,51.73
2023-05-14T13:18:21.856Z,51.53
2023-05-14T13:20:53.164Z,52.44
2023-05-14T13:23:21.033Z,52.76
2023-05-14T13:25:50.781Z,53.13
2023-05-14T13:28:19.628Z,53.64
2023-05-14T13:31:07.736Z,53.63
2023-05-14T13:33:37.097Z,53.93
2023-05-14T13:36:05.797Z,54.07
2023-05-14T13:38:34.322Z,53.94
2023-05-14T13:41:03.861Z,54.19
2023-05-14T13:43:32.075Z,54.24
2023-05-14T13:46:00.306Z,54.71
2023-05-14T13:48:28.785Z,54.02
2023-05-14T13:50:56.698Z,54.79
2023-05-14T13:53:26.137Z,55.04
2023-05-14T13:55:58.107Z,56.16
2023-05-14T13:58:28.194Z,54.61
2023-05-14T14:00:56.654Z,54.65
2023-05-14T14:03:24.525Z,53.97
2023-05-14T14:05:52.728Z,54.79
2023-05-14T14:08:23.314Z,54.15
2023-05-14T14:10:52.022Z,52.90
2023-05-14T14:13:21.197Z,53.03
2023-05-14T14:15:51.166Z,53.60
2023-05-14T14:18:19.157Z,53.04
2023-05-14T14:20:46.897Z,52.20
2023-05-14T14:23:16.311Z,51.79
2023-05-14T14:25:44.370Z,52.60
2023-05-14T14:28:12.486Z,52.44
2023-05-14T14:30:40.556Z,51.89
2023-05-14T14:33:10.057Z,51.51
2023-05-14T14:35:37.939Z,51.06
2023-05-14T14:38:05.720Z,51.28
2023-05-14T14:40:34.351Z,50.95
2023-05-14T14:43:02.303Z,50.27
2023-05-14T14:45:30.221Z,49.95
2023-05-14T14:48:31.445Z,48.10
2023-05-14T14:50:59.332Z,48.25
2023-05-14T14:53:27.125Z,49.35
2023-05-14T14:55:55.136Z,50.14
2023-05-14T14:58:23.653Z,48.86
2023-05-14T15:00:53.987Z,51.13
2023-05-14T15:03:22.733Z,53.95
2023-05-14T15:05:53.260Z,56.10
2023-05-14T15:08:21.840Z,55.57
2023-05-14T15:10:49.716Z,57.13
2023-05-14T15:13:17.655Z,55.75
2023-05-14T15:15:45.540Z,55.70
2023-05-14T15:18:13.489Z,55.35
2023-05-14T15:20:41.326Z,54.32
2023-05-14T15:23:11.544Z,53.04
2023-05-14T15:25:40.366Z,55.06
2023-05-14T15:28:08.124Z,53.84
2023-05-14T15:30:36.264Z,52.70
2023-05-14T15:33:04.251Z,53.60
2023-05-14T15:35:32.161Z,54.05
2023-05-14T15:38:00.025Z,53.09
2023-05-14T15:40:29.582Z,53.24
2023-05-14T15:42:57.433Z,52.39
2023-05-14T15:45:25.318Z,52.68
2023-05-14T15:47:53.208Z,53.94
2023-05-14T15:50:21.549Z,55.02
2023-05-14T15:52:49.793Z,55.18
2023-05-14T15:55:17.788Z,51.19
2023-05-14T15:57:47.081Z,50.89
2023-05-14T16:00:15.528Z,51.20
2023-05-14T16:02:43.545Z,50.16
2023-05-14T16:05:11.436Z,50.88
2023-05-14T16:07:39.503Z,51.78
2023-05-14T16:10:08.380Z,51.95
2023-05-14T16:12:36.378Z,52.11
2023-05-14T16:15:07.854Z,51.83
2023-05-14T16:17:35.992Z,51.60
2023-05-14T16:20:04.839Z,51.69
2023-05-14T16:22:34.676Z,51.86
2023-05-14T16:25:03.530Z,52.31
2023-05-14T16:27:31.616Z,51.94
2023-05-14T16:29:59.474Z,52.00
2023-05-14T16:32:28.792Z,53.43
2023-05-14T16:34:56.726Z,52.69
2023-05-14T16:37:26.598Z,52.92
2023-05-14T16:39:54.923Z,53.46
2023-05-14T16:42:22.742Z,53.62
2023-05-14T16:44:50.528Z,53.64
2023-05-14T16:47:18.378Z,53.87
2023-05-14T16:49:47.488Z,54.36
2023-05-14T16:52:15.415Z,55.17
2023-05-14T16:54:43.216Z,54.72
2023-05-14T16:57:11.047Z,54.99
2023-05-14T16:59:38.835Z,55.16
2023-05-14T17:02:07.064Z,54.38
2023-05-14T17:04:38.783Z,55.23
2023-05-14T17:07:08.129Z,55.89
2023-05-14T17:09:35.971Z,56.28
2023-05-14T17:12:03.911Z,55.68
2023-05-14T17:14:31.772Z,56.29
2023-05-14T17:16:59.526Z,56.67
2023-05-14T17:19:27.284Z,56.96
2023-05-14T17:21:55.102Z,57.00
2023-05-14T17:24:24.278Z,57.33
2023-05-14T17:26:52.063Z,56.84
2023-05-14T17:29:19.994Z,57.12
2023-05-14T17:31:48.258Z,57.28
2023-05-14T17:34:16.246Z,57.38
2023-05-14T17:36:44.089Z,57.88
2023-05-14T17:39:11.888Z,58.83
2023-05-14T17:41:41.992Z,58.57
2023-05-14T17:44:12.084Z,59.49
2023-05-14T17:46:41.577Z,60.29
2023-05-14T17:49:09.614Z,60.44
2023-05-14T17:51:37.356Z,60.89
2023-05-14T17:54:05.281Z,63.58
2023-05-14T17:56:33.235Z,64.16
2023-05-14T17:59:02.751Z,65.89
2023-05-14T18:01:30.809Z,66.88
2023-05-14T18:03:58.839Z,68.21
2023-05-14T18:06:26.730Z,68.76
2023-05-14T18:08:54.631Z,68.92
2023-05-14T18:11:22.443Z,67.90
2023-05-14T18:13:50.255Z,67.83
2023-05-14T18:16:19.514Z,67.63
2023-05-14T18:18:47.713Z,67.76
2023-05-14T18:21:16.284Z,67.25
2023-05-14T18:23:44.392Z,68.27
2023-05-14T18:26:12.238Z,68.50
2023-05-14T18:28:40.093Z,69.54
2023-05-14T18:31:08.899Z,69.31
2023-05-14T18:33:38.232Z,70.20
2023-05-14T18:36:06.453Z,71.28
2023-05-14T18:38:34.206Z,71.01
2023-05-14T18:41:02.074Z,69.97
2023-05-14T18:43:29.998Z,70.86
2023-05-14T18:45:57.912Z,71.09
2023-05-14T18:48:26.349Z,72.14
2023-05-14T18:50:55.508Z,70.19
2023-05-14T18:53:23.274Z,70.07
2023-05-14T18:55:51.134Z,71.28
2023-05-14T18:58:18.982Z,71.85
2023-05-14T19:00:47.009Z,71.67
2023-05-14T19:03:15.177Z,72.58
2023-05-14T19:05:43.000Z,71.87
2023-05-14T19:08:12.112Z,71.52
2023-05-14T19:10:39.985Z,71.84
2023-05-14T19:13:10.402Z,71.47
2023-05-14T19:15:38.428Z,71.27
2023-05-14T19:18:06.445Z,71.21
2023-05-14T19:20:34.330Z,72.04
2023-05-14T19:23:02.041Z,74.01
2023-05-14T19:25:31.246Z,73.78
2023-05-14T19:28:01.536Z,75.08
2023-05-14T19:30:29.456Z,73.03
2023-05-14T19:32:58.226Z,70.49
2023-05-14T19:35:26.225Z,70.36
2023-05-14T19:37:54.079Z,71.25
2023-05-14T19:40:21.807Z,71.95
2023-05-14T19:42:51.128Z,72.36
2023-05-14T19:45:18.838Z,73.92
2023-05-14T19:47:46.704Z,73.42
2023-05-14T19:50:14.701Z,73.29
2023-05-14T19:52:42.480Z,74.56
2023-05-14T19:55:10.522Z,74.81
2023-05-14T19:57:38.989Z,75.73
2023-05-14T20:00:10.473Z,75.50
2023-05-14T20:02:40.932Z,75.48
2023-05-14T20:05:10.570Z,75.09
2023-05-14T20:07:40.394Z,74.78
2023-05-14T20:10:09.450Z,74.97
2023-05-14T20:12:37.274Z,76.38
2023-05-14T20:15:05.640Z,76.02
2023-05-14T20:17:34.777Z,74.76
2023-05-14T20:20:03.024Z,75.32
2023-05-14T20:22:30.784Z,75.25
2023-05-14T20:24:58.514Z,75.58
2023-05-14T20:27:26.303Z,75.95
2023-05-14T20:29:54.207Z,75.89
2023-05-14T20:32:24.736Z,77.13
2023-05-14T20:34:54.422Z,78.08
2023-05-14T20:37:23.959Z,78.57
2023-05-14T20:39:53.075Z,78.78
2023-05-14T20:42:21.074Z,79.58
2023-05-14T20:44:49.699Z,80.54
2023-05-14T20:47:20.366Z,79.19
2023-05-14T20:49:48.288Z,79.72
2023-05-14T20:52:17.843Z,80.02
2023-05-14T20:54:45.755Z,78.51
2023-05-14T20:57:15.256Z,77.61
2023-05-14T20:59:43.375Z,76.99
2023-05-14T21:02:11.826Z,76.70
2023-05-14T21:04:39.967Z,76.41
2023-05-14T21:07:07.971Z,76.42
2023-05-14T21:09:37.169Z,76.79
2023-05-14T21:12:05.613Z,77.25
2023-05-14T21:14:33.369Z,77.71
2023-05-14T21:17:01.181Z,77.90
2023-05-14T21:19:29.034Z,78.51
2023-05-14T21:21:56.718Z,79.00
2023-05-14T21:24:24.437Z,79.32
2023-05-14T21:26:53.751Z,80.59
2023-05-14T21:29:21.615Z,81.43
2023-05-14T21:31:50.199Z,82.56
2023-05-14T21:34:18.069Z,83.63
2023-05-14T21:36:46.814Z,84.30
2023-05-14T21:39:15.724Z,84.79
2023-05-14T21:41:43.554Z,85.75
2023-05-14T21:44:12.784Z,85.69
2023-05-14T21:46:40.536Z,85.59
2023-05-14T21:49:08.458Z,86.54
2023-05-14T21:51:36.231Z,86.79
2023-05-14T21:54:04.076Z,87.03
2023-05-14T21:56:32.108Z,86.98
2023-05-14T21:58:59.974Z,87.38
2023-05-14T22:01:29.424Z,87.77
2023-05-14T22:03:58.006Z,88.39
2023-05-14T22:06:26.177Z,88.67
2023-05-14T22:08:54.042Z,88.74
2023-05-14T22:11:22.370Z,89.67
2023-05-14T22:13:50.110Z,90.73
2023-05-14T22:16:17.956Z,90.38
2023-05-14T22:18:47.248Z,90.47
2023-05-14T22:21:15.129Z,90.85
2023-05-14T22:23:42.942Z,91.03
2023-05-14T22:26:10.691Z,90.85
2023-05-14T22:28:42.832Z,91.48
2023-05-14T22:31:10.977Z,92.22
2023-05-14T22:33:38.767Z,92.22
2023-05-14T22:36:08.763Z,92.05
2023-05-14T22:38:38.180Z,92.92
2023-05-14T22:41:06.044Z,92.33
2023-05-14T22:43:33.796Z,93.17
2023-05-14T22:46:01.700Z,93.03
2023-05-14T22:48:29.481Z,93.04
2023-05-14T22:50:57.206Z,93.37
2023-05-14T22:53:26.392Z,93.85
2023-05-14T22:55:54.138Z,94.60
2023-05-14T22:58:21.932Z,94.17
2023-05-14T23:00:49.697Z,95.02
2023-05-14T23:03:17.576Z,94.91
2023-05-14T23:05:45.361Z,95.75
2023-05-14T23:08:13.230Z,95.83
2023-05-14T23:10:42.387Z,95.65
2023-05-14T23:13:10.209Z,95.76
2023-05-14T23:15:38.778Z,95.93
2023-05-14T23:18:06.915Z,96.49
2023-05-14T23:20:34.721Z,96.56
2023-05-14T23:23:02.553Z,96.37
2023-05-14T23:25:30.391Z,96.42
2023-05-14T23:27:59.476Z,97.11
2023-05-14T23:30:27.272Z,97.00
2023-05-14T23:32:55.032Z,97.82
2023-05-14T23:35:23.090Z,97.91
2023-05-14T23:37:51.243Z,98.03
2023-05-14T23:40:21.351Z,98.37
2023-05-14T23:42:49.096Z,98.14
2023-05-14T23:45:18.397Z,98.20
2023-05-14T23:47:46.287Z,97.93
2023-05-14T23:50:14.121Z,97.61
2023-05-14T23:52:42.051Z,97.81
2023-05-14T23:55:10.738Z,97.46
2023-05-14T23:57:38.647Z,96.58
